aviador You're here:

LCLK Decoded Metar

LARNACA in CYPRUS
Report Time2018-05-28 04:30:00
UTC Time2018-05-28 05:05:22
Flight Rules vfr VFR
Wind280° at 03 kt
W.Decomp.*RWY 22: 1.7 kt HW 2.5 kt RCW
W.Rank280° ranks 17
Current wind is below 280° avg. (4.2)
Visibility9999 m
Phenomena:N/A
Clouds:N/A
Expected CloudBase > 1,600 ft AGL from Temp-Dew spread
CeilingNone
Temp24°C (ISA +9)
Dew Point20°C (78% RH)
QNH1011 hPa
Density Alt1,427 ft
Elevation7 ft
Report Wrong Elevation
Raw Report
LCLK 280430Z 28003KT 250V310 CAVOK 24/20 Q1011 NOSIG=

Extra information for LCLK:More info

Metar Taf Metar & Taf Last 4 Metars F.Rules Stats Wind Profile Meteogram Temp Stats Airport Information Weather charts Add Link Nearby VenuesMetar ALERT Operation Metar Decoded Social comments